Iliysk North Airport

Jump to: basic info | weather | comments

Related pages: nearby airports | nearby navaids

Basic information (top)

Location: lon 43.998299, lat 77.139099, elev 2,343 ft / 714 m msl
Status: small_airport

Weather (top)

Current conditions for Almaty Airport 39nm (72km) S (rec'd 2015/02/27 00:00Z):

UAAA 270000Z 23002MPS 9999 SCT100 M05/M08 Q1029 R88/CLRD65 NOSIG

Airport forecast for Almaty Airport 39nm (72km) S (rec'd 2015/02/26 00:18Z):

TAF TAF UAAA 262300Z 2700/2724 16005MPS 3000 BR FU SCT010 BKN030 TX02/2708Z TNM08/2701Z 
      TEMPO 2700/2703 0300 FZFG VV002 
      BECMG 2707/2708 03005MPS 5000 
      TEMPO 2713/2718 0700 
      TEMPO 2718/2724 16004MPS 0200 FZFG VV001

Latest comments (top)

No comments yet for Iliysk North Airport

More... (top)

See also NOTAMs and nearby airports and navaids, or visit the Iliysk North Airport page at the main OurAirports website..